createdAt,value
2024-03-07T00:00:31.292Z,4.26
2024-03-07T00:02:58.324Z,4.25
2024-03-07T00:05:26.389Z,4.13
2024-03-07T00:07:54.169Z,4.11
2024-03-07T00:10:22.740Z,4.14
2024-03-07T00:12:49.956Z,4.13
2024-03-07T00:15:17.366Z,4.13
2024-03-07T00:17:44.740Z,4.26
2024-03-07T00:20:21.304Z,4.20
2024-03-07T00:22:50.708Z,4.28
2024-03-07T00:25:21.652Z,4.25
2024-03-07T00:27:48.866Z,4.24
2024-03-07T00:30:20.062Z,4.18
2024-03-07T00:32:48.987Z,4.14
2024-03-07T00:35:16.248Z,4.14
2024-03-07T00:37:43.711Z,4.15
2024-03-07T00:40:11.971Z,4.16
2024-03-07T00:42:39.057Z,4.07
2024-03-07T00:45:06.667Z,4.08
2024-03-07T00:47:33.831Z,4.08
2024-03-07T00:50:01.549Z,4.12
2024-03-07T00:52:28.552Z,4.10
2024-03-07T00:54:55.704Z,4.07
2024-03-07T00:57:22.589Z,4.03
2024-03-07T00:59:50.393Z,4.05
2024-03-07T01:02:18.669Z,4.01
2024-03-07T01:04:45.919Z,3.95
2024-03-07T01:07:12.894Z,4.12
2024-03-07T01:09:39.743Z,4.09
2024-03-07T01:12:07.333Z,4.16
2024-03-07T01:14:34.304Z,4.10
2024-03-07T01:17:01.289Z,4.23
2024-03-07T01:19:28.207Z,4.44
2024-03-07T01:21:55.215Z,4.37
2024-03-07T01:24:22.262Z,4.49
2024-03-07T01:26:49.609Z,4.42
2024-03-07T01:29:17.147Z,4.06
2024-03-07T01:31:44.512Z,3.86
2024-03-07T01:34:11.688Z,3.76
2024-03-07T01:36:38.884Z,3.70
2024-03-07T01:39:06.493Z,3.64
2024-03-07T01:41:35.997Z,3.62
2024-03-07T01:44:03.231Z,3.60
2024-03-07T01:46:31.230Z,3.56
2024-03-07T01:48:59.333Z,3.70
2024-03-07T01:51:26.399Z,3.55
2024-03-07T01:53:53.868Z,3.52
2024-03-07T01:56:21.220Z,3.55
2024-03-07T01:58:48.973Z,3.59
2024-03-07T02:01:16.955Z,3.57
2024-03-07T02:03:44.423Z,3.58
2024-03-07T02:06:13.479Z,3.58
2024-03-07T02:08:41.033Z,3.57
2024-03-07T02:11:09.585Z,3.54
2024-03-07T02:13:36.579Z,3.54
2024-03-07T02:16:03.586Z,3.53
2024-03-07T02:18:30.644Z,3.53
2024-03-07T02:20:57.636Z,3.58
2024-03-07T02:23:24.549Z,3.51
2024-03-07T02:25:51.465Z,3.49
2024-03-07T02:28:18.333Z,3.45
2024-03-07T02:30:47.021Z,3.41
2024-03-07T02:33:14.026Z,3.36
2024-03-07T02:35:41.135Z,3.28
2024-03-07T02:38:08.146Z,3.24
2024-03-07T02:40:35.217Z,3.28
2024-03-07T02:43:04.875Z,3.18
2024-03-07T02:45:32.211Z,3.19
2024-03-07T02:47:59.198Z,3.16
2024-03-07T02:50:26.433Z,3.16
2024-03-07T02:52:54.274Z,3.14
2024-03-07T02:55:21.902Z,3.16
2024-03-07T02:57:51.371Z,3.10
2024-03-07T03:00:21.943Z,3.08
2024-03-07T03:02:49.786Z,3.07
2024-03-07T03:05:17.341Z,3.04
2024-03-07T03:07:54.515Z,3.13
2024-03-07T03:10:28.242Z,3.08
2024-03-07T03:12:56.710Z,3.07
2024-03-07T03:15:23.623Z,3.33
2024-03-07T03:17:50.635Z,3.32
2024-03-07T03:20:26.968Z,3.45
2024-03-07T03:23:10.537Z,3.58
2024-03-07T03:25:42.971Z,3.63
2024-03-07T03:28:13.588Z,3.74
2024-03-07T03:30:42.875Z,3.44
2024-03-07T03:33:10.441Z,3.42
2024-03-07T03:35:41.404Z,3.24
2024-03-07T03:38:09.233Z,3.13
2024-03-07T03:40:36.645Z,3.05
2024-03-07T03:43:03.949Z,2.91
2024-03-07T03:45:30.906Z,3.14
2024-03-07T03:47:59.059Z,3.41
2024-03-07T03:50:26.210Z,3.57
2024-03-07T03:52:53.697Z,3.68
2024-03-07T03:55:22.190Z,3.71
2024-03-07T03:57:50.584Z,3.68
2024-03-07T04:00:18.340Z,3.68
2024-03-07T04:02:50.302Z,3.73
2024-03-07T04:05:20.755Z,3.70
2024-03-07T04:07:47.894Z,3.67
2024-03-07T04:10:16.745Z,3.66
2024-03-07T04:12:43.703Z,3.65
2024-03-07T04:15:12.669Z,3.62
2024-03-07T04:17:39.896Z,3.56
2024-03-07T04:20:08.206Z,3.53
2024-03-07T04:22:35.831Z,3.50
2024-03-07T04:25:03.348Z,3.48
2024-03-07T04:27:30.584Z,3.30
2024-03-07T04:29:57.750Z,3.33
2024-03-07T04:32:25.018Z,3.08
2024-03-07T04:34:52.411Z,2.83
2024-03-07T04:37:19.350Z,2.92
2024-03-07T04:39:47.218Z,2.94
2024-03-07T04:42:14.214Z,2.97
2024-03-07T04:44:41.443Z,2.71
2024-03-07T04:47:08.899Z,2.56
2024-03-07T04:49:36.108Z,2.65
2024-03-07T04:52:04.383Z,2.29
2024-03-07T04:54:33.363Z,2.14
2024-03-07T04:57:00.446Z,2.08
2024-03-07T04:59:27.439Z,2.06
2024-03-07T05:01:54.354Z,2.09
2024-03-07T05:04:21.250Z,1.91
2024-03-07T05:06:51.107Z,1.83
2024-03-07T05:09:27.548Z,1.95
2024-03-07T05:11:55.297Z,1.78
2024-03-07T05:14:23.508Z,1.79
2024-03-07T05:17:06.433Z,1.76
2024-03-07T05:19:34.697Z,1.76
2024-03-07T05:22:02.192Z,1.78
2024-03-07T05:24:29.036Z,1.87
2024-03-07T05:26:56.209Z,1.67
2024-03-07T05:29:23.831Z,1.75
2024-03-07T05:31:50.777Z,1.61
2024-03-07T05:34:20.590Z,1.72
2024-03-07T05:36:48.391Z,1.55
2024-03-07T05:39:16.648Z,1.47
2024-03-07T05:41:46.401Z,1.64
2024-03-07T05:44:13.782Z,1.63
2024-03-07T05:46:48.100Z,1.60
2024-03-07T05:49:15.872Z,1.49
2024-03-07T05:51:43.665Z,1.49
2024-03-07T05:54:10.632Z,1.46
2024-03-07T05:56:38.106Z,1.37
2024-03-07T05:59:05.721Z,1.54
2024-03-07T06:01:35.688Z,1.50
2024-03-07T06:04:03.680Z,1.53
2024-03-07T06:06:33.220Z,1.36
2024-03-07T06:09:02.371Z,1.48
2024-03-07T06:11:29.453Z,1.46
2024-03-07T06:13:56.489Z,1.38
2024-03-07T06:16:23.462Z,1.52
2024-03-07T06:18:50.376Z,1.42
2024-03-07T06:21:17.422Z,1.40
2024-03-07T06:23:44.656Z,1.42
2024-03-07T06:26:18.266Z,1.46
2024-03-07T06:28:46.696Z,1.44
2024-03-07T06:31:13.668Z,1.32
2024-03-07T06:33:40.669Z,1.27
2024-03-07T06:36:07.832Z,1.38
2024-03-07T06:38:34.793Z,1.31
2024-03-07T06:41:01.736Z,1.32
2024-03-07T06:43:28.562Z,1.31
2024-03-07T06:45:56.091Z,1.38
2024-03-07T06:48:23.376Z,1.35
2024-03-07T06:50:50.555Z,1.33
2024-03-07T06:53:18.320Z,1.31
2024-03-07T06:55:45.516Z,1.33
2024-03-07T06:58:12.640Z,1.35
2024-03-07T07:00:41.694Z,1.36
2024-03-07T07:03:08.961Z,1.41
2024-03-07T07:05:36.273Z,1.42
2024-03-07T07:08:03.705Z,1.44
2024-03-07T07:10:31.226Z,1.53
2024-03-07T07:12:58.296Z,1.42
2024-03-07T07:15:25.431Z,1.48
2024-03-07T07:17:52.562Z,1.43
2024-03-07T07:20:20.331Z,1.45
2024-03-07T07:22:48.662Z,1.52
2024-03-07T07:25:15.836Z,1.47
2024-03-07T07:27:50.519Z,1.42
2024-03-07T07:30:25.031Z,1.54
2024-03-07T07:32:53.142Z,1.71
2024-03-07T07:35:20.616Z,1.69
2024-03-07T07:37:49.552Z,1.59
2024-03-07T07:40:19.683Z,1.60
2024-03-07T07:42:47.990Z,1.65
2024-03-07T07:45:17.258Z,1.95
2024-03-07T07:47:54.776Z,2.18
2024-03-07T07:50:23.931Z,2.02
2024-03-07T07:52:51.803Z,2.20
2024-03-07T07:55:19.232Z,2.34
2024-03-07T07:57:47.736Z,2.41
2024-03-07T08:00:25.223Z,2.56
2024-03-07T08:03:03.252Z,2.61
2024-03-07T08:05:32.970Z,2.76
2024-03-07T08:08:03.761Z,2.97
2024-03-07T08:10:30.967Z,3.06
2024-03-07T08:13:02.826Z,2.58
2024-03-07T08:15:30.988Z,2.38
2024-03-07T08:17:58.986Z,2.49
2024-03-07T08:20:27.215Z,2.77
2024-03-07T08:22:56.563Z,2.88
2024-03-07T08:25:25.469Z,2.97
2024-03-07T08:27:54.254Z,3.09
2024-03-07T08:30:21.369Z,3.02
2024-03-07T08:32:51.025Z,3.03
2024-03-07T08:35:17.970Z,3.21
2024-03-07T08:37:46.828Z,3.01
2024-03-07T08:40:26.392Z,3.00
2024-03-07T08:42:55.740Z,3.11
2024-03-07T08:45:23.045Z,3.26
2024-03-07T08:47:51.946Z,3.37
2024-03-07T08:50:19.487Z,3.39
2024-03-07T08:52:49.346Z,3.47
2024-03-07T08:55:18.133Z,3.56
2024-03-07T08:57:47.366Z,3.67
2024-03-07T09:00:24.136Z,3.83
2024-03-07T09:02:53.784Z,3.79
2024-03-07T09:05:24.811Z,3.88
2024-03-07T09:07:53.300Z,3.89
2024-03-07T09:10:20.835Z,3.98
2024-03-07T09:12:51.518Z,4.04
2024-03-07T09:15:19.258Z,3.82
2024-03-07T09:17:47.253Z,3.70
2024-03-07T09:20:17.455Z,3.75
2024-03-07T09:22:45.681Z,4.00
2024-03-07T09:25:14.695Z,4.09
2024-03-07T09:27:42.381Z,4.11
2024-03-07T09:30:13.516Z,4.19
2024-03-07T09:32:41.988Z,4.30
2024-03-07T09:35:13.544Z,4.34
2024-03-07T09:37:41.893Z,4.40
2024-03-07T09:40:13.810Z,4.40
2024-03-07T09:42:56.188Z,4.38
2024-03-07T09:45:24.698Z,4.45
2024-03-07T09:47:53.961Z,4.41
2024-03-07T09:50:24.007Z,4.48
2024-03-07T09:52:55.237Z,4.54
2024-03-07T09:55:26.819Z,4.58
2024-03-07T09:57:57.780Z,4.58
2024-03-07T10:00:29.557Z,4.28
2024-03-07T10:03:00.963Z,4.42
2024-03-07T10:05:28.977Z,4.53
2024-03-07T10:07:56.938Z,4.43
2024-03-07T10:10:24.675Z,4.66
2024-03-07T10:12:54.713Z,4.59
2024-03-07T10:15:22.894Z,4.57
2024-03-07T10:17:51.775Z,4.52
2024-03-07T10:20:22.098Z,4.77
2024-03-07T10:22:51.880Z,4.80
2024-03-07T10:25:20.671Z,4.79
2024-03-07T10:27:50.517Z,4.98
2024-03-07T10:30:22.558Z,5.08
2024-03-07T10:32:54.597Z,5.17
2024-03-07T10:35:27.911Z,5.31
2024-03-07T10:37:55.813Z,5.32
2024-03-07T10:40:23.966Z,5.35
2024-03-07T10:42:55.811Z,5.40
2024-03-07T10:45:23.075Z,5.51
2024-03-07T10:48:02.692Z,5.66
2024-03-07T10:50:48.939Z,5.65
2024-03-07T10:53:43.900Z,5.79
2024-03-07T10:56:35.394Z,5.89
2024-03-07T10:59:16.500Z,6.00
2024-03-07T11:01:53.164Z,5.84
2024-03-07T11:04:24.088Z,5.84
2024-03-07T11:06:51.188Z,6.03
2024-03-07T11:09:24.424Z,6.09
2024-03-07T11:11:51.729Z,6.19
2024-03-07T11:14:19.081Z,6.25
2024-03-07T11:16:46.443Z,6.17
2024-03-07T11:19:22.522Z,6.29
2024-03-07T11:21:49.753Z,6.38
2024-03-07T11:24:26.883Z,6.43
2024-03-07T11:26:55.298Z,6.42
2024-03-07T11:29:44.793Z,6.36
2024-03-07T11:32:13.351Z,6.17
2024-03-07T11:34:42.797Z,6.34
2024-03-07T11:37:18.858Z,6.46
2024-03-07T11:39:51.683Z,6.62
2024-03-07T11:42:27.064Z,6.71
2024-03-07T11:44:58.229Z,6.93
2024-03-07T11:47:37.305Z,6.85
2024-03-07T11:50:13.462Z,7.00
2024-03-07T11:52:45.887Z,7.08
2024-03-07T11:55:13.515Z,7.07
2024-03-07T11:57:42.008Z,7.14
2024-03-07T12:00:12.103Z,7.28
2024-03-07T12:02:44.960Z,7.57
2024-03-07T12:05:11.968Z,7.61
2024-03-07T12:07:39.693Z,7.44
2024-03-07T12:10:08.202Z,7.25
2024-03-07T12:12:35.401Z,7.48
2024-03-07T12:15:10.251Z,7.62
2024-03-07T12:17:37.338Z,8.12
2024-03-07T12:20:25.061Z,7.76
2024-03-07T12:22:54.478Z,7.60
2024-03-07T12:25:23.177Z,7.49
2024-03-07T12:28:07.221Z,7.67
2024-03-07T12:30:35.726Z,7.73
2024-03-07T12:33:05.901Z,7.67
2024-03-07T12:35:33.614Z,7.73
2024-03-07T12:38:01.132Z,7.75
2024-03-07T12:40:31.109Z,7.75
2024-03-07T12:42:58.054Z,8.00
2024-03-07T12:45:25.013Z,7.76
2024-03-07T12:47:55.913Z,7.71
2024-03-07T12:50:23.038Z,7.85
2024-03-07T12:52:53.789Z,7.92
2024-03-07T12:55:22.767Z,8.33
2024-03-07T12:57:51.436Z,8.23
2024-03-07T13:00:21.758Z,8.37
2024-03-07T13:02:49.764Z,8.06
2024-03-07T13:05:22.755Z,8.04
2024-03-07T13:07:50.182Z,7.93
2024-03-07T13:10:17.404Z,8.61
2024-03-07T13:12:46.991Z,8.64
2024-03-07T13:15:14.137Z,9.00
2024-03-07T13:17:41.616Z,8.99
2024-03-07T13:20:14.097Z,8.83
2024-03-07T13:22:44.903Z,8.90
2024-03-07T13:25:15.102Z,9.09
2024-03-07T13:27:45.209Z,8.91
2024-03-07T13:30:17.181Z,9.28
2024-03-07T13:32:46.149Z,8.99
2024-03-07T13:35:13.343Z,8.66
2024-03-07T13:37:40.261Z,8.60
2024-03-07T13:40:24.252Z,8.82
2024-03-07T13:42:53.132Z,9.16
2024-03-07T13:45:22.409Z,9.24
2024-03-07T13:47:49.934Z,9.45
2024-03-07T13:50:31.043Z,9.34
2024-03-07T13:53:19.563Z,9.42
2024-03-07T13:55:56.480Z,9.55
2024-03-07T13:58:32.824Z,10.14
2024-03-07T14:01:22.235Z,9.96
2024-03-07T14:04:02.409Z,10.32
2024-03-07T14:06:47.662Z,9.97
2024-03-07T14:09:37.697Z,10.09
2024-03-07T14:12:26.423Z,9.89
2024-03-07T14:15:32.589Z,10.22
2024-03-07T14:18:27.632Z,10.05
2024-03-07T14:21:12.398Z,10.16
2024-03-07T14:24:01.700Z,10.15
2024-03-07T14:26:47.789Z,10.48
2024-03-07T14:29:28.700Z,11.03
2024-03-07T14:31:55.593Z,11.05
2024-03-07T14:34:35.129Z,10.34
2024-03-07T14:37:19.043Z,10.06
2024-03-07T14:39:49.575Z,9.87
2024-03-07T14:42:17.030Z,9.64
2024-03-07T14:44:49.737Z,9.71
2024-03-07T14:47:20.788Z,9.55
2024-03-07T14:49:47.790Z,9.80
2024-03-07T14:52:14.716Z,9.27
2024-03-07T14:54:42.035Z,9.87
2024-03-07T14:57:11.728Z,9.90
2024-03-07T14:59:39.403Z,10.23
2024-03-07T15:02:12.159Z,10.78
2024-03-07T15:04:41.129Z,10.39
2024-03-07T15:07:11.025Z,10.44
2024-03-07T15:09:39.647Z,10.68
2024-03-07T15:12:08.491Z,10.62
2024-03-07T15:14:38.859Z,10.40
2024-03-07T15:17:08.099Z,10.57
2024-03-07T15:19:36.518Z,10.13
2024-03-07T15:22:04.704Z,9.92
2024-03-07T15:24:31.904Z,10.58
2024-03-07T15:26:59.105Z,10.45
2024-03-07T15:29:26.281Z,10.34
2024-03-07T15:31:53.515Z,10.63
2024-03-07T15:34:22.364Z,11.09
2024-03-07T15:37:00.014Z,11.07
2024-03-07T15:39:31.573Z,11.61
2024-03-07T15:42:00.786Z,11.67
2024-03-07T15:44:27.930Z,12.13
2024-03-07T15:46:55.297Z,11.69
2024-03-07T15:49:22.708Z,11.61
2024-03-07T15:51:49.565Z,11.11
2024-03-07T15:54:19.567Z,11.00
2024-03-07T15:56:47.349Z,11.03
2024-03-07T15:59:14.773Z,11.34
2024-03-07T16:01:42.421Z,11.64
2024-03-07T16:04:09.566Z,11.39
2024-03-07T16:06:36.664Z,11.28
2024-03-07T16:09:03.688Z,11.28
2024-03-07T16:11:31.228Z,11.13
2024-03-07T16:13:58.799Z,10.56
2024-03-07T16:16:25.886Z,10.39
2024-03-07T16:18:53.868Z,10.10
2024-03-07T16:21:21.070Z,9.37
2024-03-07T16:23:48.116Z,9.10
2024-03-07T16:26:18.193Z,8.88
2024-03-07T16:28:45.224Z,8.65
2024-03-07T16:31:12.424Z,7.80
2024-03-07T16:33:39.398Z,7.94
2024-03-07T16:36:06.654Z,8.07
2024-03-07T16:38:36.026Z,7.93
2024-03-07T16:41:03.092Z,7.83
2024-03-07T16:43:30.041Z,7.70
2024-03-07T16:45:57.080Z,7.64
2024-03-07T16:48:24.181Z,7.56
2024-03-07T16:50:53.353Z,7.45
2024-03-07T16:53:20.279Z,7.24
2024-03-07T16:55:49.794Z,7.16
2024-03-07T16:58:17.756Z,7.00
2024-03-07T17:00:45.286Z,6.94
2024-03-07T17:03:15.108Z,6.94
2024-03-07T17:05:44.315Z,6.90
2024-03-07T17:08:17.932Z,6.77
2024-03-07T17:10:46.481Z,6.70
2024-03-07T17:13:15.714Z,6.70
2024-03-07T17:15:44.640Z,6.63
2024-03-07T17:18:13.528Z,6.50
2024-03-07T17:20:42.087Z,6.53
2024-03-07T17:23:10.120Z,6.43
2024-03-07T17:25:37.746Z,6.36
2024-03-07T17:28:05.568Z,6.19
2024-03-07T17:30:36.964Z,6.23
2024-03-07T17:33:07.602Z,6.18
2024-03-07T17:35:38.328Z,6.06
2024-03-07T17:38:05.792Z,6.01
2024-03-07T17:40:34.909Z,5.98
2024-03-07T17:43:06.324Z,5.85
2024-03-07T17:45:38.204Z,5.87
2024-03-07T17:48:08.060Z,5.99
2024-03-07T17:50:37.045Z,6.01
2024-03-07T17:53:10.475Z,5.90
2024-03-07T17:55:43.146Z,5.93
2024-03-07T17:58:12.498Z,5.78
2024-03-07T18:00:44.465Z,5.65
2024-03-07T18:03:12.330Z,5.66
2024-03-07T18:05:43.028Z,5.64
2024-03-07T18:10:52.006Z,5.55
2024-03-07T18:13:22.126Z,5.47
2024-03-07T18:15:50.641Z,5.40
2024-03-07T18:18:18.730Z,5.31
2024-03-07T18:20:47.168Z,5.42
2024-03-07T18:23:15.491Z,5.50
2024-03-07T18:25:43.152Z,5.38
2024-03-07T18:28:11.043Z,5.31
2024-03-07T18:30:38.408Z,5.30
2024-03-07T18:33:06.046Z,5.31
2024-03-07T18:35:34.878Z,5.29
2024-03-07T18:38:03.062Z,5.34
2024-03-07T18:40:30.621Z,5.26
2024-03-07T18:42:58.234Z,5.20
2024-03-07T18:45:27.953Z,5.12
2024-03-07T18:47:55.509Z,5.13
2024-03-07T18:50:27.531Z,5.01
2024-03-07T18:52:57.218Z,5.03
2024-03-07T18:55:30.692Z,4.88
2024-03-07T18:58:04.189Z,4.93
2024-03-07T19:00:38.465Z,4.82
2024-03-07T19:03:09.974Z,4.70
2024-03-07T19:05:43.683Z,4.65
2024-03-07T19:08:23.739Z,4.68
2024-03-07T19:10:54.700Z,4.63
2024-03-07T19:13:22.153Z,4.61
2024-03-07T19:15:50.647Z,4.59
2024-03-07T19:18:18.644Z,4.61
2024-03-07T19:20:47.130Z,4.53
2024-03-07T19:23:14.758Z,4.51
2024-03-07T19:25:42.374Z,4.47
2024-03-07T19:28:14.729Z,4.38
2024-03-07T19:30:45.835Z,4.54
2024-03-07T19:33:17.161Z,4.53
2024-03-07T19:35:58.236Z,4.51
2024-03-07T19:38:25.677Z,4.23
2024-03-07T19:40:53.452Z,4.33
2024-03-07T19:43:26.307Z,4.34
2024-03-07T19:45:54.255Z,4.31
2024-03-07T19:48:26.917Z,4.41
2024-03-07T19:50:56.959Z,4.30
2024-03-07T19:53:24.384Z,4.31
2024-03-07T19:55:51.504Z,4.23
2024-03-07T19:58:20.705Z,4.27
2024-03-07T20:00:49.964Z,4.19
2024-03-07T20:03:24.050Z,4.04
2024-03-07T20:05:53.869Z,4.09
2024-03-07T20:08:22.763Z,4.12
2024-03-07T20:10:51.954Z,4.10
2024-03-07T20:13:21.065Z,4.06
2024-03-07T20:15:48.171Z,4.05
2024-03-07T20:18:15.798Z,3.99
2024-03-07T20:20:47.701Z,3.93
2024-03-07T20:23:15.537Z,4.08
2024-03-07T20:25:43.589Z,4.02
2024-03-07T20:28:10.784Z,4.04
2024-03-07T20:30:38.990Z,3.92
2024-03-07T20:33:07.009Z,3.86
2024-03-07T20:35:35.329Z,3.72
2024-03-07T20:38:06.585Z,3.83
2024-03-07T20:40:33.771Z,3.68
2024-03-07T20:43:00.951Z,3.81
2024-03-07T20:45:28.106Z,3.73
2024-03-07T20:47:55.409Z,3.80
2024-03-07T20:50:25.839Z,3.81
2024-03-07T20:52:54.755Z,3.76
2024-03-07T20:55:24.559Z,3.67
2024-03-07T20:57:52.188Z,3.61
2024-03-07T21:00:32.526Z,3.61
2024-03-07T21:02:59.807Z,3.62
2024-03-07T21:05:27.423Z,3.60
2024-03-07T21:07:54.917Z,3.58
2024-03-07T21:10:25.927Z,3.48
2024-03-07T21:12:54.246Z,3.45
2024-03-07T21:15:21.620Z,3.42
2024-03-07T21:17:49.217Z,3.47
2024-03-07T21:20:20.514Z,3.49
2024-03-07T21:22:49.154Z,3.44
2024-03-07T21:25:18.540Z,3.44
2024-03-07T21:27:50.376Z,3.51
2024-03-07T21:30:17.954Z,3.40
2024-03-07T21:32:45.968Z,3.46
2024-03-07T21:35:13.350Z,3.36
2024-03-07T21:37:44.516Z,3.41
2024-03-07T21:40:17.913Z,3.39
2024-03-07T21:42:51.927Z,3.34
2024-03-07T21:45:19.700Z,3.31
2024-03-07T21:47:47.861Z,3.33
2024-03-07T21:50:16.823Z,3.34
2024-03-07T21:52:46.206Z,3.28
2024-03-07T21:55:13.976Z,3.25
2024-03-07T21:57:43.934Z,3.27
2024-03-07T22:00:17.757Z,3.21
2024-03-07T22:02:57.549Z,3.19
2024-03-07T22:05:29.681Z,3.12
2024-03-07T22:07:57.607Z,2.98
2024-03-07T22:10:24.530Z,2.90
2024-03-07T22:12:54.058Z,2.80
2024-03-07T22:15:24.062Z,2.77
2024-03-07T22:17:54.600Z,2.82
2024-03-07T22:20:24.330Z,2.67
2024-03-07T22:22:52.841Z,2.70
2024-03-07T22:25:23.286Z,2.73
2024-03-07T22:27:51.158Z,2.78
2024-03-07T22:30:23.285Z,2.78
2024-03-07T22:32:51.992Z,2.69
2024-03-07T22:35:19.289Z,2.62
2024-03-07T22:37:49.477Z,2.54
2024-03-07T22:40:16.931Z,2.35
2024-03-07T22:42:46.913Z,2.32
2024-03-07T22:45:15.781Z,2.24
2024-03-07T22:47:43.618Z,2.16
2024-03-07T22:50:18.303Z,2.14
2024-03-07T22:52:53.937Z,2.11
2024-03-07T22:55:21.011Z,2.08
2024-03-07T22:57:47.861Z,2.02
2024-03-07T23:00:25.530Z,2.06
2024-03-07T23:02:53.195Z,2.04
2024-03-07T23:05:23.022Z,2.04
2024-03-07T23:07:51.624Z,2.02
2024-03-07T23:10:21.319Z,1.87
2024-03-07T23:12:51.038Z,1.65
2024-03-07T23:15:18.478Z,1.66
2024-03-07T23:17:46.442Z,1.62
2024-03-07T23:20:23.837Z,1.48
2024-03-07T23:22:58.669Z,1.46
2024-03-07T23:25:27.149Z,1.47
2024-03-07T23:27:55.750Z,1.41
2024-03-07T23:30:24.683Z,1.33
2024-03-07T23:32:54.007Z,1.37
2024-03-07T23:35:21.658Z,1.32
2024-03-07T23:37:49.371Z,1.37
2024-03-07T23:40:16.526Z,1.44
2024-03-07T23:42:44.349Z,1.41
2024-03-07T23:45:14.133Z,1.36
2024-03-07T23:47:44.923Z,1.25
2024-03-07T23:50:13.323Z,1.13
2024-03-07T23:52:46.481Z,1.21
2024-03-07T23:55:17.558Z,1.33
2024-03-07T23:57:45.708Z,1.37
